KDRI/DRI METAR and TAF weather

Enter ICAO airport designator
Station Type Date Time Source
KDRI METAR 2021/03/02 14:35 UTC NOAA

KDRI 021435Z AUTO 35009KT 4SM DZ OVC006 07/07 A3026 RMK AO2 T00680068


Station Type Date Time Source
KDRI Decoded METAR 2021/03/02 14:35 UTC NOAA

De Ridder, Beauregard Parish Airport, LA, United States (KDRI) 30-49-54N 093-20-23W
Mar 02, 2021 - 09:35 AM EST / 2021.03.02 1435 UTC
Wind: from the N (350 degrees) at 10 MPH (9 KT):0
Visibility: 4 mile(s):0
Sky conditions: overcast
Weather: drizzle
Temperature: 44.2 F (6.8 C)
Dew Point: 44.2 F (6.8 C)
Relative Humidity: 100%
Pressure (altimeter): 30.26 in. Hg (1024 hPa)
ob: KDRI 021435Z AUTO 35009KT 4SM DZ OVC006 07/07 A3026 RMK AO2 T00680068
cycle: 14

Station Type Date Time Source
KDRI TAF UTC NOAA

Error!

Example: see airport list